Time;durP1;ratioP1;P1;durP2;ratioP2;P2;SDS_P1;SDS_P2;PMS_P1;PMS_P2;Temp;Humidity;BMP_temperature;BMP_pressure;BME280_temperature;BME280_humidity;BME280_pressure;Samples;Min_cycle;Max_cycle;Signal;HPM_P1;HPM_P2
2023/06/01 00:02:19;;;;;;;;;;;;;;;22.31;45.95;101408.91;5008339;28;4177;-67
2023/06/01 00:04:48;;;;;;;;;;;;;;;22.32;45.58;101405.41;5009279;28;4107;-68
2023/06/01 00:07:14;;;;;;;;;;;;;;;22.31;45.87;101406.03;5008500;28;4116;-67
2023/06/01 00:09:41;;;;;;;;;;;;;;;22.31;45.47;101411.81;5003930;28;4166;-67
2023/06/01 00:12:07;;;;;;;;;;;;;;;22.30;45.89;101405.28;5008707;28;4144;-67
2023/06/01 00:14:34;;;;;;;;;;;;;;;22.31;45.89;101403.91;5011589;28;4087;-67
2023/06/01 00:17:00;;;;;;;;;;;;;;;22.32;46.01;101413.31;5011473;28;4212;-66
2023/06/01 00:19:26;;;;;;;;;;;;;;;22.30;45.92;101411.06;5008170;28;4140;-67
2023/06/01 00:21:53;;;;;;;;;;;;;;;22.32;45.65;101410.44;5007632;28;4048;-67
2023/06/01 00:24:20;;;;;;;;;;;;;;;22.30;45.67;101410.31;5008166;28;4177;-67
2023/06/01 00:26:47;;;;;;;;;;;;;;;22.30;45.83;101410.31;5010804;28;3992;-67
2023/06/01 00:29:13;;;;;;;;;;;;;;;22.29;45.67;101403.81;5005953;28;5286;-67
2023/06/01 00:31:40;;;;;;;;;;;;;;;22.29;45.97;101405.97;5005151;28;4197;-67
2023/06/01 00:34:07;;;;;;;;;;;;;;;22.29;45.73;101403.06;5010348;28;4169;-66
2023/06/01 00:36:33;;;;;;;;;;;;;;;22.29;45.90;101415.34;5011781;28;3944;-66
2023/06/01 00:39:02;;;;;;;;;;;;;;;22.27;45.80;101406.59;5006499;28;4217;-66
2023/06/01 00:41:30;;;;;;;;;;;;;;;22.29;45.93;101411.72;5018088;28;3933;-67
2023/06/01 00:43:56;;;;;;;;;;;;;;;22.28;45.93;101401.56;5012592;28;4132;-67
2023/06/01 00:46:23;;;;;;;;;;;;;;;22.28;45.69;101401.56;5004642;28;4168;-67
2023/06/01 00:48:50;;;;;;;;;;;;;;;22.28;45.70;101407.34;5009960;28;4310;-67
2023/06/01 00:51:17;;;;;;;;;;;;;;;22.28;45.87;101401.56;5004083;28;4178;-66
2023/06/01 00:53:43;;;;;;;;;;;;;;;22.28;45.91;101407.34;4999627;28;4083;-66
2023/06/01 00:56:11;;;;;;;;;;;;;;;22.27;45.66;101397.22;5008434;28;4141;-75
2023/06/01 00:58:38;;;;;;;;;;;;;;;22.27;46.00;101400.09;4989547;28;4016;-66
2023/06/01 01:01:04;;;;;;;;;;;;;;;22.27;45.94;101400.09;5005726;28;4138;-66
2023/06/01 01:03:34;;;;;;;;;;;;;;;22.26;45.83;101416.63;5006155;28;4075;-66
2023/06/01 01:06:11;;;;;;;;;;;;;;;22.26;45.81;101407.25;5010787;28;4495;-66
2023/06/01 01:08:40;;;;;;;;;;;;;;;22.26;45.98;101413.75;5006265;28;4113;-67
2023/06/01 01:11:07;;;;;;;;;;;;;;;22.24;46.09;101404.25;5013090;28;4131;-67
2023/06/01 01:13:44;;;;;;;;;;;;;;;22.25;45.97;101418.03;5000800;28;4180;-66
2023/06/01 01:16:12;;;;;;;;;;;;;;;22.25;46.00;101408.66;5009096;28;4294;-66
2023/06/01 01:18:40;;;;;;;;;;;;;;;22.25;45.92;101408.66;4999331;28;4210;-66
2023/06/01 01:21:22;;;;;;;;;;;;;;;22.25;45.94;101400.00;4990328;28;4163;-66
2023/06/01 01:24:07;;;;;;;;;;;;;;;22.24;45.98;101407.16;5007127;28;4323;-66
2023/06/01 01:26:35;;;;;;;;;;;;;;;22.24;45.82;101407.91;5014297;28;4105;-66
2023/06/01 01:29:03;;;;;;;;;;;;;;;22.24;45.96;101407.16;4998594;28;4154;-66
2023/06/01 01:31:30;;;;;;;;;;;;;;;22.24;45.97;101410.81;4999379;28;4246;-66
2023/06/01 01:33:56;;;;;;;;;;;;;;;22.24;46.07;101410.03;4996595;28;4089;-66
2023/06/01 01:36:23;;;;;;;;;;;;;;;22.23;46.02;101412.19;5012378;28;4129;-66
2023/06/01 01:38:49;;;;;;;;;;;;;;;22.23;45.82;101399.91;5011309;28;4935;-66
2023/06/01 01:41:16;;;;;;;;;;;;;;;22.22;45.73;101409.94;5007861;28;5075;-65
2023/06/01 01:43:42;;;;;;;;;;;;;;;22.23;45.77;101399.91;5006645;28;3995;-65
2023/06/01 01:46:21;;;;;;;;;;;;;;;22.22;45.94;101407.03;5008163;28;4203;-66
2023/06/01 01:49:06;;;;;;;;;;;;;;;22.21;45.95;101394.75;5005334;28;4362;-66
2023/06/01 01:51:37;;;;;;;;;;;;;;;22.22;46.01;101398.38;5003479;28;4047;-66
2023/06/01 01:54:04;;;;;;;;;;;;;;;22.19;46.04;101394.63;5013348;28;4188;-65
2023/06/01 01:56:30;;;;;;;;;;;;;;;22.20;45.97;101395.41;5014489;28;4111;-66
2023/06/01 01:58:57;;;;;;;;;;;;;;;22.19;46.16;101388.88;5013486;28;4871;-66
2023/06/01 02:01:23;;;;;;;;;;;;;;;22.20;45.85;101389.63;5011581;28;4167;-65
2023/06/01 02:04:03;;;;;;;;;;;;;;;22.19;45.90;101391.75;5004234;28;4040;-66
2023/06/01 02:06:30;;;;;;;;;;;;;;;22.18;45.76;101391.00;5007416;28;5419;-66
2023/06/01 02:08:57;;;;;;;;;;;;;;;22.18;46.05;101393.91;5010390;28;4079;-66
2023/06/01 02:11:23;;;;;;;;;;;;;;;22.19;46.00;101391.75;5007577;28;4121;-66
2023/06/01 02:13:50;;;;;;;;;;;;;;;22.18;46.10;101396.78;5022879;28;4041;-65
2023/06/01 02:16:17;;;;;;;;;;;;;;;22.17;46.11;101398.19;5015494;28;4191;-65
2023/06/01 02:18:45;;;;;;;;;;;;;;;22.17;46.13;101398.19;5011018;28;4369;-66
2023/06/01 02:21:13;;;;;;;;;;;;;;;22.17;45.94;101385.88;5005731;28;4074;-66
2023/06/01 02:23:39;;;;;;;;;;;;;;;22.17;46.15;101391.66;5009731;28;4248;-66
2023/06/01 02:26:06;;;;;;;;;;;;;;;22.17;46.15;101398.19;5009636;28;4297;-65
2023/06/01 02:28:33;;;;;;;;;;;;;;;22.16;46.10;101395.94;5013541;28;4349;-66
2023/06/01 02:30:59;;;;;;;;;;;;;;;22.16;46.00;101390.19;5008871;28;4151;-65
2023/06/01 02:33:26;;;;;;;;;;;;;;;22.15;45.98;101389.44;5014357;28;4255;-66
2023/06/01 02:35:53;;;;;;;;;;;;;;;22.16;46.18;101387.28;5008978;28;4125;-66
2023/06/01 02:38:19;;;;;;;;;;;;;;;22.15;46.20;101388.69;5013738;28;4171;-66
2023/06/01 02:40:46;;;;;;;;;;;;;;;22.14;45.99;101381.44;5008217;28;4066;-66
2023/06/01 02:43:12;;;;;;;;;;;;;;;22.15;45.90;101383.66;5012533;28;4253;-66
2023/06/01 02:45:39;;;;;;;;;;;;;;;22.14;46.26;101387.94;5015287;28;4174;-66
2023/06/01 02:48:06;;;;;;;;;;;;;;;22.10;46.29;101381.22;5008204;28;4696;-66
2023/06/01 02:50:32;;;;;;;;;;;;;;;21.40;46.69;101371.34;5009386;28;4157;-66
2023/06/01 02:52:59;;;;;;;;;;;;;;;21.62;46.30;101375.34;5006638;28;4112;-66
2023/06/01 02:55:25;;;;;;;;;;;;;;;21.83;45.97;101370.56;5006369;28;4185;-65
2023/06/01 02:58:30;;;;;;;;;;;;;;;21.95;45.88;101377.66;4967227;28;4131;-65
2023/06/01 03:01:03;;;;;;;;;;;;;;;21.99;45.77;101380.03;4957315;28;4157;-65
2023/06/01 03:03:30;;;;;;;;;;;;;;;22.02;45.98;101387.38;4979133;28;4155;-65
2023/06/01 03:05:57;;;;;;;;;;;;;;;22.04;45.79;101373.03;5009802;28;4442;-65
2023/06/01 03:08:49;;;;;;;;;;;;;;;21.87;45.94;101374.38;5005467;28;4147;-67
2023/06/01 03:11:36;;;;;;;;;;;;;;;21.10;46.92;101385.69;5004192;28;4150;-67
2023/06/01 03:14:02;;;;;;;;;;;;;;;21.05;46.99;101389.72;5010402;28;4124;-65
2023/06/01 03:16:29;;;;;;;;;;;;;;;21.36;46.53;101382.66;5018748;28;4005;-65
2023/06/01 03:19:07;;;;;;;;;;;;;;;21.59;45.84;101375.91;5018945;28;4125;-65
2023/06/01 03:21:33;;;;;;;;;;;;;;;21.71;45.62;101383.00;5009126;28;4568;-65
2023/06/01 03:24:00;;;;;;;;;;;;;;;21.79;45.50;101381.91;5008766;28;4159;-65
2023/06/01 03:26:27;;;;;;;;;;;;;;;21.82;45.75;101381.34;5006396;28;4161;-65
2023/06/01 03:28:55;;;;;;;;;;;;;;;21.84;45.70;101389.38;5009571;28;4029;-66
2023/06/01 03:31:21;;;;;;;;;;;;;;;21.88;45.70;101386.69;5006519;28;4123;-67
2023/06/01 03:33:48;;;;;;;;;;;;;;;21.89;45.77;101388.16;5015977;28;4212;-66
2023/06/01 03:36:15;;;;;;;;;;;;;;;21.91;45.55;101382.50;5012404;28;4214;-66
2023/06/01 03:38:42;;;;;;;;;;;;;;;21.92;45.77;101383.97;5014380;28;4404;-65
2023/06/01 03:41:09;;;;;;;;;;;;;;;21.92;45.58;101393.41;5005474;28;4470;-66
2023/06/01 03:43:35;;;;;;;;;;;;;;;21.93;45.58;101397.03;5008614;28;4117;-66
2023/06/01 03:46:02;;;;;;;;;;;;;;;21.93;45.83;101397.03;5008843;28;4146;-66
2023/06/01 03:48:29;;;;;;;;;;;;;;;21.93;45.74;101391.25;5012407;28;4018;-66
2023/06/01 03:50:55;;;;;;;;;;;;;;;21.94;45.67;101389.84;5004947;28;4157;-66
2023/06/01 03:53:22;;;;;;;;;;;;;;;21.92;46.06;101390.50;5000514;28;4134;-66
2023/06/01 03:55:50;;;;;;;;;;;;;;;21.93;45.88;101397.75;5006873;28;4110;-66
2023/06/01 03:58:27;;;;;;;;;;;;;;;21.94;46.09;101389.84;5011886;28;4403;-66
2023/06/01 04:00:54;;;;;;;;;;;;;;;21.94;45.92;101387.72;5003215;28;4187;-66
2023/06/01 04:03:21;;;;;;;;;;;;;;;21.94;45.86;101384.84;4989997;28;5908;-66
2023/06/01 04:05:50;;;;;;;;;;;;;;;21.94;46.30;101389.84;5008141;28;3998;-65
2023/06/01 04:08:19;;;;;;;;;;;;;;;21.95;46.22;101388.47;4997192;28;4186;-65
2023/06/01 04:10:46;;;;;;;;;;;;;;;21.94;46.03;101392.72;5009604;28;4246;-65
2023/06/01 04:13:13;;;;;;;;;;;;;;;21.94;46.35;101387.72;5006913;28;4132;-66
2023/06/01 04:15:39;;;;;;;;;;;;;;;21.94;46.02;101389.84;5003911;28;4067;-66
2023/06/01 04:18:06;;;;;;;;;;;;;;;21.93;45.98;101394.88;5008192;28;4124;-66
2023/06/01 04:20:48;;;;;;;;;;;;;;;21.94;46.31;101396.38;5003842;28;4551;-66
2023/06/01 04:23:14;;;;;;;;;;;;;;;21.94;46.20;101392.72;4999525;28;4167;-66
2023/06/01 04:25:44;;;;;;;;;;;;;;;21.93;46.39;101397.75;5013871;28;4056;-65
2023/06/01 04:28:12;;;;;;;;;;;;;;;21.93;46.17;101392.00;5005960;28;4143;-65
2023/06/01 04:30:39;;;;;;;;;;;;;;;21.93;46.26;101397.03;4999826;28;3976;-66
2023/06/01 04:33:05;;;;;;;;;;;;;;;21.93;46.36;101402.78;5002666;28;4144;-66
2023/06/01 04:35:34;;;;;;;;;;;;;;;21.94;46.17;101396.38;5013040;28;4177;-65
2023/06/01 04:38:00;;;;;;;;;;;;;;;21.93;46.43;101402.78;5003134;28;4132;-65
2023/06/01 04:40:27;;;;;;;;;;;;;;;21.93;46.31;101397.75;5006752;28;4058;-65
2023/06/01 04:42:56;;;;;;;;;;;;;;;21.93;46.30;101399.91;5009951;28;3967;-65
2023/06/01 04:45:25;;;;;;;;;;;;;;;21.92;46.28;101402.03;5004091;28;5723;-65
2023/06/01 04:47:52;;;;;;;;;;;;;;;21.93;46.23;101402.78;5003078;28;4078;-65
2023/06/01 04:50:23;;;;;;;;;;;;;;;21.92;46.28;101395.50;4999730;28;4022;-65
2023/06/01 04:52:49;;;;;;;;;;;;;;;21.92;46.26;101396.28;5006647;28;4368;-65
2023/06/01 04:55:16;;;;;;;;;;;;;;;21.92;46.45;101404.16;5006132;28;4133;-65
2023/06/01 04:57:43;;;;;;;;;;;;;;;21.92;46.29;101396.28;5009724;28;4044;-66
2023/06/01 05:00:13;;;;;;;;;;;;;;;21.92;46.62;101395.50;5000760;28;4269;-65
2023/06/01 05:02:40;;;;;;;;;;;;;;;21.92;46.67;101395.50;4990592;28;5257;-65
2023/06/01 05:05:07;;;;;;;;;;;;;;;21.91;46.31;101388.28;5001959;28;4179;-65
2023/06/01 05:07:36;;;;;;;;;;;;;;;21.92;46.57;101395.50;5002295;28;4151;-65
2023/06/01 05:10:05;;;;;;;;;;;;;;;21.92;46.68;101389.75;5012476;28;4474;-65
2023/06/01 05:12:39;;;;;;;;;;;;;;;21.92;46.33;101389.75;5015159;28;4102;-65
2023/06/01 05:15:06;;;;;;;;;;;;;;;21.92;46.56;101386.84;5003193;28;4171;-65
2023/06/01 05:17:33;;;;;;;;;;;;;;;21.92;46.65;101390.50;5008898;28;4234;-65
2023/06/01 05:20:03;;;;;;;;;;;;;;;21.92;46.56;101389.75;5004135;28;4219;-65
2023/06/01 05:22:30;;;;;;;;;;;;;;;21.91;46.27;101394.78;5013397;28;3987;-65
2023/06/01 05:24:57;;;;;;;;;;;;;;;21.92;46.35;101386.84;5010579;28;4207;-66
2023/06/01 05:27:24;;;;;;;;;;;;;;;21.91;46.48;101388.28;5011715;28;4079;-65
2023/06/01 05:29:51;;;;;;;;;;;;;;;21.91;46.49;101385.38;5003037;28;3916;-65
2023/06/01 05:32:18;;;;;;;;;;;;;;;21.91;46.50;101388.28;5002563;28;4307;-66
2023/06/01 05:34:44;;;;;;;;;;;;;;;21.91;46.41;101382.50;5003927;28;4196;-66
2023/06/01 05:37:11;;;;;;;;;;;;;;;21.91;46.49;101383.25;5002884;28;4273;-65
2023/06/01 05:39:37;;;;;;;;;;;;;;;21.92;46.60;101389.75;4997736;28;4103;-68
2023/06/01 05:42:05;;;;;;;;;;;;;;;21.73;46.75;101391.75;4993253;28;4098;-69
2023/06/01 05:44:35;;;;;;;;;;;;;;;21.76;46.45;101389.69;5000324;28;4141;-66
2023/06/01 05:47:01;;;;;;;;;;;;;;;21.75;46.52;101400.50;5003006;28;4053;-66
2023/06/01 05:49:31;;;;;;;;;;;;;;;21.79;46.22;101396.34;4999155;28;4459;-67
2023/06/01 05:51:58;;;;;;;;;;;;;;;21.84;46.46;101400.91;5002170;28;4020;-66
2023/06/01 05:54:26;;;;;;;;;;;;;;;21.89;46.36;101400.44;5011373;28;4417;-66
2023/06/01 05:56:53;;;;;;;;;;;;;;;21.90;46.38;101404.09;5007601;28;3938;-66
2023/06/01 05:59:20;;;;;;;;;;;;;;;21.92;46.45;101407.81;4999740;28;4472;-68
2023/06/01 06:01:48;;;;;;;;;;;;;;;21.88;46.31;101403.97;5003966;28;4107;-69
2023/06/01 06:04:15;;;;;;;;;;;;;;;22.26;48.80;101410.13;5003849;28;4152;-69
2023/06/01 06:06:42;;;;;;;;;;;;;;;22.03;47.61;101400.38;5007453;28;4115;-66
2023/06/01 06:09:09;;;;;;;;;;;;;;;22.08;48.41;101404.19;5004041;28;5460;-67
2023/06/01 06:11:38;;;;;;;;;;;;;;;22.28;47.87;101404.47;5004056;28;4040;-68
2023/06/01 06:14:04;;;;;;;;;;;;;;;22.34;47.69;101405.50;4999631;28;4221;-69
2023/06/01 06:16:31;;;;;;;;;;;;;;;22.37;47.25;101404.19;5005264;28;4211;-69
2023/06/01 06:18:58;;;;;;;;;;;;;;;22.36;46.50;101401.97;5008267;28;3930;-69
2023/06/01 06:21:24;;;;;;;;;;;;;;;22.40;46.02;101401.41;4996799;28;4169;-67
2023/06/01 06:23:50;;;;;;;;;;;;;;;22.24;46.20;101410.81;5011048;28;4220;-67
2023/06/01 06:26:17;;;;;;;;;;;;;;;22.21;45.90;101402.66;5004238;28;4223;-68
2023/06/01 06:28:43;;;;;;;;;;;;;;;22.23;46.05;101399.91;4999282;28;5081;-67
2023/06/01 06:31:10;;;;;;;;;;;;;;;22.24;45.82;101395.59;5004434;28;4101;-68
2023/06/01 06:33:36;;;;;;;;;;;;;;;22.18;45.51;101402.56;5003674;28;4190;-67
2023/06/01 06:36:03;;;;;;;;;;;;;;;22.39;45.57;101397.78;5006762;28;4088;-69
2023/06/01 06:38:29;;;;;;;;;;;;;;;22.47;45.19;101397.38;5005559;28;4027;-67
2023/06/01 06:40:57;;;;;;;;;;;;;;;22.57;45.01;101392.09;5006335;28;4249;-67
2023/06/01 06:43:23;;;;;;;;;;;;;;;22.62;44.70;101398.81;5011902;28;4104;-67
2023/06/01 06:45:50;;;;;;;;;;;;;;;22.71;44.58;101403.53;5006438;28;4031;-69
2023/06/01 06:48:16;;;;;;;;;;;;;;;22.43;44.74;101400.13;5004123;28;4546;-66
2023/06/01 06:50:44;;;;;;;;;;;;;;;22.15;45.13;101395.22;5004904;28;4148;-66
2023/06/01 06:53:11;;;;;;;;;;;;;;;22.21;45.77;101394.00;5000855;28;4317;-67
2023/06/01 06:55:37;;;;;;;;;;;;;;;22.41;44.58;101397.88;4997447;28;4345;-72
2023/06/01 06:58:04;;;;;;;;;;;;;;;22.48;44.52;101396.75;5003623;28;4494;-66
2023/06/01 07:00:30;;;;;;;;;;;;;;;22.46;44.48;101390.88;5005448;28;3947;-68
2023/06/01 07:02:58;;;;;;;;;;;;;;;22.45;45.04;101397.28;5008664;28;4239;-65
2023/06/01 07:05:25;;;;;;;;;;;;;;;22.26;45.01;101404.34;5007611;28;4088;-69
2023/06/01 07:07:51;;;;;;;;;;;;;;;22.16;44.94;101395.94;5009184;28;4045;-69
2023/06/01 07:10:17;;;;;;;;;;;;;;;22.16;44.96;101395.94;5003450;28;4151;-69
2023/06/01 07:12:44;;;;;;;;;;;;;;;22.34;44.89;101390.31;5001809;28;4221;-65
2023/06/01 07:15:11;;;;;;;;;;;;;;;22.45;45.04;101403.06;5000924;28;4215;-67
2023/06/01 07:17:37;;;;;;;;;;;;;;;22.51;44.68;101406.97;5001721;28;4215;-68
2023/06/01 07:20:07;;;;;;;;;;;;;;;22.56;44.70;101402.13;5007325;28;4019;-66
2023/06/01 07:22:33;;;;;;;;;;;;;;;22.62;44.69;101395.91;4998038;28;4180;-66
2023/06/01 07:25:00;;;;;;;;;;;;;;;22.64;44.98;101390.25;5001422;28;4149;-70
2023/06/01 07:27:27;;;;;;;;;;;;;;;22.90;44.78;101391.41;4999352;28;4167;-70
2023/06/01 07:29:55;;;;;;;;;;;;;;;22.79;44.35;101390.22;5005179;28;4332;-68
2023/06/01 07:32:22;;;;;;;;;;;;;;;22.45;44.51;101383.63;5002821;28;5142;-67
2023/06/01 07:34:48;;;;;;;;;;;;;;;22.25;45.03;101376.91;5001767;28;4154;-67
2023/06/01 07:37:15;;;;;;;;;;;;;;;22.20;44.96;101383.88;5002631;28;4220;-66
2023/06/01 07:39:43;;;;;;;;;;;;;;;22.23;45.10;101382.59;4993532;28;4258;-68
2023/06/01 07:42:10;;;;;;;;;;;;;;;22.29;44.80;101380.00;4993989;28;4154;-68
2023/06/01 07:44:36;;;;;;;;;;;;;;;22.31;45.04;101377.94;5000423;28;4231;-69
2023/06/01 07:47:03;;;;;;;;;;;;;;;22.28;45.02;101384.25;5004622;28;4043;-70
2023/06/01 07:49:29;;;;;;;;;;;;;;;22.25;45.17;101386.31;5000476;28;4258;-69
2023/06/01 07:51:58;;;;;;;;;;;;;;;22.25;44.88;101374.03;5001639;28;4063;-68
2023/06/01 07:54:25;;;;;;;;;;;;;;;22.25;44.85;101380.53;5001118;28;4134;-68
2023/06/01 07:56:51;;;;;;;;;;;;;;;22.27;44.95;101385.66;4998327;28;4162;-67
2023/06/01 07:59:17;;;;;;;;;;;;;;;22.24;45.17;101381.94;5000551;28;4138;-68
2023/06/01 08:01:44;;;;;;;;;;;;;;;22.23;45.18;101376.81;5005396;28;4158;-69
2023/06/01 08:04:10;;;;;;;;;;;;;;;22.24;45.45;101373.28;4993735;28;4496;-70
2023/06/01 08:06:38;;;;;;;;;;;;;;;22.24;45.61;101379.06;5003817;28;4185;-68
2023/06/01 08:09:05;;;;;;;;;;;;;;;22.32;45.65;101372.91;5002735;28;5054;-65
2023/06/01 08:11:31;;;;;;;;;;;;;;;22.54;45.09;101368.19;5004257;28;4095;-68
2023/06/01 08:13:59;;;;;;;;;;;;;;;22.62;45.13;101375.72;5007844;28;4031;-69
2023/06/01 08:16:26;;;;;;;;;;;;;;;22.61;44.51;101377.09;5008561;28;3915;-67
2023/06/01 08:18:53;;;;;;;;;;;;;;;22.57;44.67;101369.75;5000797;28;4154;-68
2023/06/01 08:21:20;;;;;;;;;;;;;;;22.55;44.33;101369.66;5002955;28;4119;-67
2023/06/01 08:23:47;;;;;;;;;;;;;;;22.54;44.18;101376.84;5004730;28;4109;-64
2023/06/01 08:26:13;;;;;;;;;;;;;;;22.52;44.36;101373.84;5002761;28;4015;-64
2023/06/01 08:28:40;;;;;;;;;;;;;;;22.51;43.94;101366.56;4999605;28;4209;-64
2023/06/01 08:31:07;;;;;;;;;;;;;;;22.50;44.25;101365.09;5000179;28;4142;-64
2023/06/01 08:33:34;;;;;;;;;;;;;;;22.49;44.23;101348.44;5005523;28;4050;-65
2023/06/01 08:36:00;;;;;;;;;;;;;;;22.52;43.98;101350.75;5006295;28;4084;-69
2023/06/01 08:38:32;;;;;;;;;;;;;;;22.64;44.35;101355.59;5010811;28;4095;-67
2023/06/01 08:40:58;;;;;;;;;;;;;;;22.72;43.74;101344.41;5007596;28;4206;-71
2023/06/01 08:43:25;;;;;;;;;;;;;;;22.71;43.67;101340.03;5015326;28;4124;-70
2023/06/01 08:45:51;;;;;;;;;;;;;;;22.48;44.19;101344.06;5004889;28;4172;-67
2023/06/01 08:48:18;;;;;;;;;;;;;;;22.52;44.00;101339.22;5005436;28;4214;-70
2023/06/01 08:50:48;;;;;;;;;;;;;;;22.55;43.93;101331.41;5007617;28;4124;-70
2023/06/01 08:53:18;;;;;;;;;;;;;;;22.59;43.82;101334.47;5002821;28;4180;-70
2023/06/01 08:55:45;;;;;;;;;;;;;;;22.66;44.01;101339.09;5011210;28;3957;-70
2023/06/01 08:58:12;;;;;;;;;;;;;;;22.68;43.46;101336.31;5008184;28;4094;-73
2023/06/01 09:00:38;;;;;;;;;;;;;;;22.61;43.66;101328.03;4994658;28;4131;-73
2023/06/01 09:03:05;;;;;;;;;;;;;;;22.78;43.43;101333.13;5011701;28;4958;-73
2023/06/01 09:05:32;;;;;;;;;;;;;;;22.92;43.31;101333.75;5014161;28;3980;-73
2023/06/01 09:07:58;;;;;;;;;;;;;;;23.02;43.16;101324.81;5009938;28;4530;-70
2023/06/01 09:10:25;;;;;;;;;;;;;;;22.97;43.08;101326.72;5008542;28;3898;-72
2023/06/01 09:12:52;;;;;;;;;;;;;;;22.87;42.84;101329.19;5007167;28;4560;-75
2023/06/01 09:15:19;;;;;;;;;;;;;;;22.62;43.14;101320.88;5001137;28;4153;-69
2023/06/01 09:17:52;;;;;;;;;;;;;;;22.47;43.77;101326.00;5003245;28;4539;-69
2023/06/01 09:20:25;;;;;;;;;;;;;;;22.41;43.43;101325.72;5000422;28;4326;-69
2023/06/01 09:22:52;;;;;;;;;;;;;;;22.36;43.85;101330.56;4995513;28;4050;-65
2023/06/01 09:25:22;;;;;;;;;;;;;;;22.68;43.88;101321.16;4997805;28;4323;-67
2023/06/01 09:27:49;;;;;;;;;;;;;;;22.83;43.26;101314.56;4996147;28;3981;-67
2023/06/01 09:30:16;;;;;;;;;;;;;;;22.91;43.46;101311.31;5001343;28;4201;-66
2023/06/01 09:32:44;;;;;;;;;;;;;;;22.95;43.39;101306.44;5010450;28;4054;-68
2023/06/01 09:35:11;;;;;;;;;;;;;;;22.97;43.25;101300.00;5002880;28;4182;-69
2023/06/01 09:37:37;;;;;;;;;;;;;;;22.91;43.87;101297.59;5000805;28;3972;-66
2023/06/01 09:40:19;;;;;;;;;;;;;;;23.03;43.42;101302.44;5004868;28;3995;-64
2023/06/01 09:42:49;;;;;;;;;;;;;;;23.13;43.44;101297.09;5004346;28;4416;-68
2023/06/01 09:45:18;;;;;;;;;;;;;;;23.15;43.21;101300.06;5006516;28;4167;-67
2023/06/01 09:47:45;;;;;;;;;;;;;;;23.19;43.11;101291.56;5004887;28;3955;-67
2023/06/01 09:50:11;;;;;;;;;;;;;;;23.19;43.19;101294.47;5008526;28;4160;-67
2023/06/01 09:52:37;;;;;;;;;;;;;;;23.07;42.38;101293.97;5003896;28;4404;-76
2023/06/01 09:55:04;;;;;;;;;;;;;;;23.02;43.39;101287.28;4998490;28;4360;-71
2023/06/01 09:57:31;;;;;;;;;;;;;;;22.88;42.94;101284.47;5002891;28;4073;-70
2023/06/01 09:59:57;;;;;;;;;;;;;;;23.03;43.47;101285.13;4996027;28;4094;-71
2023/06/01 10:02:24;;;;;;;;;;;;;;;22.96;43.20;101279.03;4994328;28;4545;-70
2023/06/01 10:04:52;;;;;;;;;;;;;;;22.78;43.84;101281.16;5002465;28;4029;-69
2023/06/01 10:07:19;;;;;;;;;;;;;;;22.88;43.82;101272.19;5003019;28;4056;-73
2023/06/01 10:09:48;;;;;;;;;;;;;;;23.03;44.10;101280.06;4996832;28;3994;-66
2023/06/01 10:12:14;;;;;;;;;;;;;;;23.13;43.94;101273.97;5007849;28;4348;-68
2023/06/01 10:14:41;;;;;;;;;;;;;;;23.15;44.09;101268.28;5009424;28;4026;-68
2023/06/01 10:17:07;;;;;;;;;;;;;;;23.07;44.10;101270.84;5007148;28;4165;-67
2023/06/01 10:19:36;;;;;;;;;;;;;;;23.02;43.79;101263.41;5008848;28;4087;-65
2023/06/01 10:22:03;;;;;;;;;;;;;;;22.85;43.63;101265.56;5001899;28;4302;-70
2023/06/01 10:24:30;;;;;;;;;;;;;;;23.09;43.15;101273.81;5004293;28;3979;-69
2023/06/01 10:26:58;;;;;;;;;;;;;;;23.18;42.98;101266.94;5002414;28;4463;-69
2023/06/01 10:29:24;;;;;;;;;;;;;;;23.26;43.25;101267.31;5004362;28;4063;-73
2023/06/01 10:31:51;;;;;;;;;;;;;;;23.30;42.63;101255.19;5006599;28;4267;-69
2023/06/01 10:34:36;;;;;;;;;;;;;;;23.23;42.83;101257.06;5002822;28;4211;-68
2023/06/01 10:37:03;;;;;;;;;;;;;;;23.33;43.09;101254.59;5003829;28;4038;-66
2023/06/01 10:39:30;;;;;;;;;;;;;;;23.34;43.33;101250.31;5007865;28;4516;-71
2023/06/01 10:42:17;;;;;;;;;;;;;;;23.36;43.07;101247.47;4999743;28;4135;-70
2023/06/01 10:44:45;;;;;;;;;;;;;;;23.41;43.32;101252.03;5002670;28;4994;-68
2023/06/01 10:47:11;;;;;;;;;;;;;;;23.40;43.17;101247.63;5001775;28;4330;-70
2023/06/01 10:49:47;;;;;;;;;;;;;;;23.44;43.48;101241.28;4998122;28;4167;-69
2023/06/01 10:52:29;;;;;;;;;;;;;;;23.47;43.44;101242.09;5003393;28;4115;-70
2023/06/01 10:54:56;;;;;;;;;;;;;;;23.42;44.00;101244.84;4999764;28;4063;-73
2023/06/01 10:57:25;;;;;;;;;;;;;;;23.45;43.98;101236.97;4995060;28;4008;-71
2023/06/01 11:00:11;;;;;;;;;;;;;;;23.47;44.36;101237.06;4992303;28;4479;-75
2023/06/01 11:02:49;;;;;;;;;;;;;;;23.50;44.37;101235.00;5004023;28;5437;-68
2023/06/01 11:05:35;;;;;;;;;;;;;;;23.49;44.20;101233.53;5007278;28;4072;-69
2023/06/01 11:08:03;;;;;;;;;;;;;;;23.40;44.73;101236.06;5002546;28;4165;-66
2023/06/01 11:10:53;;;;;;;;;;;;;;;23.40;44.55;101236.06;5003914;28;4029;-64
2023/06/01 11:13:21;;;;;;;;;;;;;;;23.28;45.04;101232.72;5001985;28;4185;-67
2023/06/01 11:16:07;;;;;;;;;;;;;;;23.28;44.79;101223.31;5003160;28;4029;-68
2023/06/01 11:18:46;;;;;;;;;;;;;;;23.20;45.25;101223.72;5007755;28;4061;-66
2023/06/01 11:21:20;;;;;;;;;;;;;;;23.16;45.10;101220.69;5000408;28;4505;-72
2023/06/01 11:23:47;;;;;;;;;;;;;;;23.31;45.00;101222.72;4997210;28;4324;-67
2023/06/01 11:26:14;;;;;;;;;;;;;;;23.45;45.05;101231.19;5005118;28;5121;-71
2023/06/01 11:28:40;;;;;;;;;;;;;;;23.50;45.09;101215.53;5003187;28;4148;-69
2023/06/01 11:31:10;;;;;;;;;;;;;;;23.56;44.97;101215.00;5011603;28;4293;-69
2023/06/01 11:33:40;;;;;;;;;;;;;;;23.58;44.87;101220.88;5005474;28;4513;-68
2023/06/01 11:36:10;;;;;;;;;;;;;;;23.60;44.82;101220.94;5010748;28;5007;-68
2023/06/01 11:38:40;;;;;;;;;;;;;;;23.55;44.96;101216.44;5006489;28;4146;-71
2023/06/01 11:41:07;;;;;;;;;;;;;;;23.56;44.99;101212.84;5004268;28;4278;-69
2023/06/01 11:43:33;;;;;;;;;;;;;;;23.58;44.73;101203.53;5004417;28;4225;-69
2023/06/01 11:46:04;;;;;;;;;;;;;;;23.59;44.98;101205.75;5004464;28;4204;-65
2023/06/01 11:49:01;;;;;;;;;;;;;;;23.45;45.06;101202.31;5001689;28;4368;-70
2023/06/01 11:51:28;;;;;;;;;;;;;;;23.30;45.22;101195.22;4999486;28;4861;-69
2023/06/01 11:53:55;;;;;;;;;;;;;;;23.24;45.10;101194.97;5001785;28;4256;-68
2023/06/01 11:56:28;;;;;;;;;;;;;;;23.23;45.39;101199.28;5002993;28;4147;-68
2023/06/01 11:58:56;;;;;;;;;;;;;;;23.24;45.08;101189.19;5003171;28;4922;-69
2023/06/01 12:01:22;;;;;;;;;;;;;;;23.22;45.42;101194.91;5006854;28;5111;-70
2023/06/01 12:03:50;;;;;;;;;;;;;;;23.21;45.43;101202.09;5009367;28;4517;-69
2023/06/01 12:06:22;;;;;;;;;;;;;;;23.21;45.44;101202.09;4998373;28;4050;-70
2023/06/01 12:08:50;;;;;;;;;;;;;;;23.29;44.79;101190.84;4997383;28;4102;-73
2023/06/01 12:11:18;;;;;;;;;;;;;;;23.67;44.27;101190.13;4997684;28;4532;-71
2023/06/01 12:13:44;;;;;;;;;;;;;;;23.71;44.04;101187.38;5008415;28;4195;-71
2023/06/01 12:16:10;;;;;;;;;;;;;;;23.80;43.73;101178.38;5000322;28;4055;-72
2023/06/01 12:18:48;;;;;;;;;;;;;;;23.83;44.12;101182.09;5001650;28;4208;-72
2023/06/01 12:21:16;;;;;;;;;;;;;;;23.80;44.00;101183.41;5000868;28;4192;-72
2023/06/01 12:23:43;;;;;;;;;;;;;;;23.90;43.81;101166.44;5006296;28;4286;-71
2023/06/01 12:26:10;;;;;;;;;;;;;;;23.90;44.08;101185.94;4998393;28;4163;-72
2023/06/01 12:28:46;;;;;;;;;;;;;;;23.93;43.53;101167.25;5007174;28;4197;-72
2023/06/01 12:31:13;;;;;;;;;;;;;;;24.08;43.96;101175.03;5004520;28;4157;-71
2023/06/01 12:33:40;;;;;;;;;;;;;;;24.16;43.81;101171.69;5006886;28;4452;-72
2023/06/01 12:36:07;;;;;;;;;;;;;;;24.13;43.69;101170.16;5001987;28;4210;-69
2023/06/01 12:38:49;;;;;;;;;;;;;;;24.10;43.80;101166.44;5004179;28;4876;-73
2023/06/01 12:41:17;;;;;;;;;;;;;;;24.08;43.95;101162.75;5005531;28;4135;-73
2023/06/01 12:43:47;;;;;;;;;;;;;;;24.07;44.00;101161.97;5016664;28;4183;-73
2023/06/01 12:46:18;;;;;;;;;;;;;;;24.12;43.97;101159.97;5004674;28;4035;-75
2023/06/01 12:48:46;;;;;;;;;;;;;;;24.11;43.80;101153.44;5003169;28;4879;-73
2023/06/01 12:51:13;;;;;;;;;;;;;;;23.96;44.12;101142.75;5006797;28;4116;-72
2023/06/01 12:53:39;;;;;;;;;;;;;;;23.86;44.19;101156.88;5002320;28;4088;-74
2023/06/01 12:56:06;;;;;;;;;;;;;;;23.89;44.14;101161.31;5009954;28;4043;-72